createdAt,value
2017-07-16T00:00:20.178Z,2
2017-07-16T00:01:18.854Z,2
2017-07-16T00:02:18.285Z,2
2017-07-16T00:03:17.342Z,1.9
2017-07-16T00:04:16.394Z,1.9
2017-07-16T00:04:47.025Z,1.9
2017-07-16T00:05:17.778Z,1.9
2017-07-16T00:06:15.071Z,1.9
2017-07-16T00:07:14.123Z,1.9
2017-07-16T00:08:13.815Z,1.9
2017-07-16T00:09:13.247Z,1.8
2017-07-16T00:10:12.056Z,1.8
2017-07-16T00:11:11.362Z,1.8
2017-07-16T00:12:10.922Z,1.8
2017-07-16T00:13:09.725Z,1.8
2017-07-16T00:14:09.171Z,1.8
2017-07-16T00:15:08.481Z,1.8
2017-07-16T00:16:07.919Z,1.8
2017-07-16T00:17:06.856Z,1.8
2017-07-16T00:18:06.034Z,1.8
2017-07-16T00:19:05.216Z,1.8
2017-07-16T00:20:04.267Z,1.8
2017-07-16T00:21:03.447Z,1.8
2017-07-16T00:22:02.999Z,1.8
2017-07-16T00:23:02.296Z,1.8
2017-07-16T00:23:32.656Z,1.8
2017-07-16T00:24:02.889Z,1.9
2017-07-16T00:24:34.099Z,1.9
2017-07-16T00:25:59.952Z,1.8
2017-07-16T00:26:59.515Z,1.8
2017-07-16T00:27:58.313Z,1.8
2017-07-16T00:28:57.753Z,1.8
2017-07-16T00:29:56.817Z,1.8
2017-07-16T00:30:56.005Z,1.8
2017-07-16T00:31:55.315Z,1.8
2017-07-16T00:32:54.495Z,1.8
2017-07-16T00:33:25.245Z,1.8
2017-07-16T00:33:55.653Z,1.8
2017-07-16T00:34:25.643Z,1.8
2017-07-16T00:34:56.140Z,1.8
2017-07-16T00:35:26.757Z,1.8
2017-07-16T00:35:56.745Z,1.8
2017-07-16T00:36:27.612Z,1.8
2017-07-16T00:36:58.111Z,1.8
2017-07-16T00:37:27.982Z,1.8
2017-07-16T00:38:49.935Z,1.9
2017-07-16T00:39:49.239Z,1.9
2017-07-16T00:40:48.174Z,1.9
2017-07-16T00:41:47.475Z,1.8
2017-07-16T00:42:47.033Z,1.8
2017-07-16T00:43:45.838Z,1.9
2017-07-16T00:44:45.395Z,1.9
2017-07-16T00:45:15.504Z,1.9
2017-07-16T00:45:46.129Z,1.9
2017-07-16T00:46:16.370Z,1.9
2017-07-16T00:46:46.743Z,2
2017-07-16T00:47:18.057Z,2
2017-07-16T00:48:42.024Z,2.1
2017-07-16T00:49:41.204Z,2
2017-07-16T00:50:40.768Z,2.1
2017-07-16T00:51:39.948Z,2
2017-07-16T00:52:39.007Z,2
2017-07-16T00:53:38.181Z,2.1
2017-07-16T00:54:37.246Z,2.1
2017-07-16T00:55:37.057Z,2.1
2017-07-16T00:56:35.893Z,2.1
2017-07-16T00:57:35.167Z,2.1
2017-07-16T00:58:34.342Z,2.1
2017-07-16T00:59:33.525Z,2.1
2017-07-16T01:00:32.711Z,2.1
2017-07-16T01:01:32.017Z,2.1
2017-07-16T01:02:31.882Z,2.1
2017-07-16T01:03:30.954Z,2.1
2017-07-16T01:04:30.142Z,2.1
2017-07-16T01:05:00.393Z,2.1
2017-07-16T01:06:28.641Z,2
2017-07-16T01:07:27.576Z,2
2017-07-16T01:08:26.878Z,2
2017-07-16T01:09:26.094Z,2
2017-07-16T01:10:25.398Z,2
2017-07-16T01:11:24.443Z,1.9
2017-07-16T01:12:23.490Z,1.9
2017-07-16T01:13:22.675Z,1.9
2017-07-16T01:14:22.242Z,1.9
2017-07-16T01:14:52.357Z,1.9
2017-07-16T01:15:23.234Z,1.9
2017-07-16T01:15:53.613Z,1.9
2017-07-16T01:16:24.434Z,1.9
2017-07-16T01:16:54.243Z,1.9
2017-07-16T01:18:19.086Z,1.9
2017-07-16T01:19:18.398Z,1.9
2017-07-16T01:20:17.844Z,1.9
2017-07-16T01:21:16.912Z,1.9
2017-07-16T01:22:15.589Z,1.8
2017-07-16T01:23:15.393Z,1.8
2017-07-16T01:24:14.568Z,1.9
2017-07-16T01:25:14.134Z,1.9
2017-07-16T01:26:13.324Z,1.9
2017-07-16T01:26:43.193Z,1.9
2017-07-16T01:27:13.813Z,1.9
2017-07-16T01:28:11.101Z,1.8
2017-07-16T01:29:10.402Z,1.8
2017-07-16T01:30:09.712Z,1.8
2017-07-16T01:31:09.021Z,1.8
2017-07-16T01:32:08.336Z,1.8
2017-07-16T01:33:07.518Z,1.8
2017-07-16T01:34:07.083Z,1.8
2017-07-16T01:35:05.631Z,1.7
2017-07-16T01:36:05.442Z,1.7
2017-07-16T01:37:03.989Z,1.7
2017-07-16T01:38:03.931Z,1.6
2017-07-16T01:39:02.856Z,1.6
2017-07-16T01:40:02.041Z,1.6
2017-07-16T01:41:01.350Z,1.6
2017-07-16T01:41:31.338Z,1.6
2017-07-16T01:42:02.071Z,1.5
2017-07-16T01:42:32.440Z,1.5
2017-07-16T01:43:02.422Z,1.5
2017-07-16T01:43:58.831Z,1.5
2017-07-16T01:44:58.206Z,1.5
2017-07-16T01:45:57.777Z,1.4
2017-07-16T01:46:56.715Z,1.4
2017-07-16T01:47:56.299Z,1.4
2017-07-16T01:48:55.222Z,1.4
2017-07-16T01:49:54.534Z,1.4
2017-07-16T01:50:53.587Z,1.4
2017-07-16T01:51:53.027Z,1.4
2017-07-16T01:52:51.703Z,1.3
2017-07-16T01:53:51.252Z,1.3
2017-07-16T01:54:50.561Z,1.3
2017-07-16T01:55:49.490Z,1.3
2017-07-16T01:56:48.669Z,1.3
2017-07-16T01:57:48.025Z,1.3
2017-07-16T01:58:47.341Z,1.3
2017-07-16T01:59:46.774Z,1.3
2017-07-16T02:00:45.954Z,1.3
2017-07-16T02:01:44.763Z,1.3
2017-07-16T02:02:44.320Z,1.3
2017-07-16T02:03:43.877Z,1.3
2017-07-16T02:04:42.422Z,1.3
2017-07-16T02:05:41.729Z,1.3
2017-07-16T02:06:41.164Z,1.3
2017-07-16T02:07:40.606Z,1.3
2017-07-16T02:08:39.534Z,1.3
2017-07-16T02:09:38.968Z,1.3
2017-07-16T02:10:38.025Z,1.3
2017-07-16T02:11:08.901Z,1.3
2017-07-16T02:11:39.015Z,1.3
2017-07-16T02:12:09.509Z,1.3
2017-07-16T02:12:39.869Z,1.3
2017-07-16T02:13:10.483Z,1.3
2017-07-16T02:14:34.950Z,1.2
2017-07-16T02:15:34.133Z,1.3
2017-07-16T02:16:33.304Z,1.3
2017-07-16T02:17:32.754Z,1.3
2017-07-16T02:18:32.330Z,1.3
2017-07-16T02:19:31.267Z,1.3
2017-07-16T02:20:30.201Z,1.3
2017-07-16T02:21:00.485Z,1.3
2017-07-16T02:21:31.225Z,1.3
2017-07-16T02:22:01.463Z,1.3
2017-07-16T02:22:31.442Z,1.3
2017-07-16T02:23:02.060Z,1.3
2017-07-16T02:23:32.300Z,1.3
2017-07-16T02:24:02.660Z,1.3
2017-07-16T02:24:33.178Z,1.2
2017-07-16T02:25:03.668Z,1.2
2017-07-16T02:26:25.748Z,1.2
2017-07-16T02:28:24.073Z,1.2
2017-07-16T02:29:23.254Z,1.2
2017-07-16T02:30:22.428Z,1.2
2017-07-16T02:31:21.609Z,1.2
2017-07-16T02:32:20.835Z,1.1
2017-07-16T02:33:20.266Z,1.1
2017-07-16T02:34:19.572Z,1.1
2017-07-16T02:34:49.564Z,1.1
2017-07-16T02:35:20.054Z,1.1
2017-07-16T02:35:50.478Z,1.1
2017-07-16T02:36:21.092Z,1.1
2017-07-16T02:37:17.006Z,1
2017-07-16T02:38:16.315Z,1.1
2017-07-16T02:39:15.486Z,1
2017-07-16T02:40:14.536Z,1
2017-07-16T02:41:13.589Z,1.1
2017-07-16T02:42:12.767Z,1
2017-07-16T02:43:11.818Z,1
2017-07-16T02:44:11.246Z,1
2017-07-16T02:45:10.686Z,1
2017-07-16T02:46:10.119Z,1
2017-07-16T02:47:08.801Z,1
2017-07-16T02:48:08.117Z,1
2017-07-16T02:49:07.849Z,1
2017-07-16T02:50:06.527Z,1
2017-07-16T02:51:05.580Z,1
2017-07-16T02:52:05.531Z,1
2017-07-16T02:52:35.766Z,1
2017-07-16T02:53:05.881Z,1
2017-07-16T02:53:36.490Z,1
2017-07-16T02:55:02.713Z,0.9
2017-07-16T02:56:01.899Z,0.9
2017-07-16T02:57:01.208Z,0.9
2017-07-16T02:58:00.258Z,0.9
2017-07-16T02:58:59.687Z,0.9
2017-07-16T02:59:58.859Z,0.9
2017-07-16T03:00:58.286Z,0.9
2017-07-16T03:01:57.222Z,0.9
2017-07-16T03:02:56.784Z,0.9
2017-07-16T03:03:27.162Z,0.9
2017-07-16T03:03:57.405Z,0.9
2017-07-16T03:04:27.390Z,0.9
2017-07-16T03:04:57.756Z,0.9
2017-07-16T03:05:28.371Z,0.9
2017-07-16T03:05:58.737Z,0.9
2017-07-16T03:06:29.100Z,0.9
2017-07-16T03:06:59.212Z,0.9
2017-07-16T03:07:52.474Z,0.9
2017-07-16T03:08:51.650Z,0.9
2017-07-16T03:09:50.700Z,0.9
2017-07-16T03:10:50.263Z,0.9
2017-07-16T03:11:49.450Z,0.9
2017-07-16T03:12:48.761Z,0.9
2017-07-16T03:13:47.436Z,0.9
2017-07-16T03:14:47.116Z,0.9
2017-07-16T03:15:17.875Z,0.9
2017-07-16T03:15:48.242Z,0.9
2017-07-16T03:16:45.536Z,0.9
2017-07-16T03:17:44.842Z,0.9
2017-07-16T03:18:44.281Z,0.9
2017-07-16T03:19:43.224Z,0.9
2017-07-16T03:20:42.533Z,0.9
2017-07-16T03:21:41.218Z,0.9
2017-07-16T03:22:40.645Z,0.8
2017-07-16T03:23:39.693Z,0.9
2017-07-16T03:24:38.997Z,0.8
2017-07-16T03:25:38.108Z,0.8
2017-07-16T03:26:37.409Z,0.8
2017-07-16T03:27:36.716Z,0.8
2017-07-16T03:28:35.894Z,0.8
2017-07-16T03:29:34.956Z,0.8
2017-07-16T03:30:34.254Z,0.8
2017-07-16T03:31:33.940Z,0.8
2017-07-16T03:33:32.135Z,0.8
2017-07-16T03:34:31.577Z,0.8
2017-07-16T03:35:02.200Z,0.8
2017-07-16T03:35:32.319Z,0.8
2017-07-16T03:36:29.494Z,0.8
2017-07-16T03:37:29.054Z,0.8
2017-07-16T03:38:28.486Z,0.8
2017-07-16T03:39:27.670Z,0.8
2017-07-16T03:40:26.475Z,0.7
2017-07-16T03:41:25.924Z,0.8
2017-07-16T03:42:24.993Z,0.8
2017-07-16T03:43:24.427Z,0.7
2017-07-16T03:44:23.242Z,0.7
2017-07-16T03:45:22.672Z,0.8
2017-07-16T03:46:21.848Z,0.7
2017-07-16T03:47:20.395Z,0.7
2017-07-16T03:48:20.078Z,0.7
2017-07-16T03:49:19.318Z,0.7
2017-07-16T03:50:18.745Z,0.7
2017-07-16T03:51:17.670Z,0.7
2017-07-16T03:52:16.970Z,0.7
2017-07-16T03:53:16.275Z,0.7
2017-07-16T03:55:14.722Z,0.6
2017-07-16T03:56:13.279Z,0.7
2017-07-16T03:57:13.215Z,0.7
2017-07-16T03:58:12.144Z,0.7
2017-07-16T03:59:11.444Z,0.7
2017-07-16T03:59:41.681Z,0.7
2017-07-16T04:00:11.917Z,0.7
2017-07-16T04:00:42.152Z,0.7
2017-07-16T04:01:12.702Z,0.7
2017-07-16T04:01:43.079Z,0.7
2017-07-16T04:03:08.061Z,0.7
2017-07-16T04:05:06.888Z,0.7
2017-07-16T04:06:05.701Z,0.7
2017-07-16T04:07:05.135Z,0.7
2017-07-16T04:08:04.308Z,0.7
2017-07-16T04:09:03.478Z,0.7
2017-07-16T04:09:33.969Z,0.7
2017-07-16T04:10:04.712Z,0.7
2017-07-16T04:10:34.709Z,0.7
2017-07-16T04:11:05.574Z,0.7
2017-07-16T04:11:35.814Z,0.7
2017-07-16T04:12:06.575Z,0.7
2017-07-16T04:12:37.375Z,0.7
2017-07-16T04:14:58.718Z,0.7
2017-07-16T04:15:58.160Z,0.7
2017-07-16T04:16:56.962Z,0.7
2017-07-16T04:17:56.524Z,0.7
2017-07-16T04:18:56.403Z,0.7
2017-07-16T04:19:55.144Z,0.8
2017-07-16T04:20:54.205Z,0.8
2017-07-16T04:21:52.889Z,0.8
2017-07-16T04:22:23.252Z,0.8
2017-07-16T04:22:53.748Z,0.8
2017-07-16T04:23:24.240Z,0.8
2017-07-16T04:24:50.473Z,0.8
2017-07-16T04:26:49.168Z,0.8
2017-07-16T04:27:48.612Z,0.8
2017-07-16T04:29:47.192Z,0.8
2017-07-16T04:30:46.565Z,0.8
2017-07-16T04:31:45.633Z,0.8
2017-07-16T04:32:44.199Z,0.8
2017-07-16T04:33:43.384Z,0.8
2017-07-16T04:34:42.697Z,0.8
2017-07-16T04:35:42.296Z,0.9
2017-07-16T04:36:41.247Z,0.8
2017-07-16T04:37:40.328Z,0.8
2017-07-16T04:38:39.646Z,0.9
2017-07-16T04:39:39.211Z,0.9
2017-07-16T04:40:09.257Z,0.9
2017-07-16T04:40:39.900Z,0.9
2017-07-16T04:41:10.523Z,0.9
2017-07-16T04:41:40.790Z,0.9
2017-07-16T04:42:11.413Z,0.9
2017-07-16T04:43:36.014Z,0.9
2017-07-16T04:44:34.952Z,1
2017-07-16T04:45:34.272Z,1
2017-07-16T04:46:33.779Z,1
2017-07-16T04:47:32.724Z,1
2017-07-16T04:48:31.804Z,1
2017-07-16T04:49:31.125Z,1
2017-07-16T04:50:02.073Z,1
2017-07-16T04:50:31.837Z,1
2017-07-16T04:51:02.233Z,1
2017-07-16T04:51:33.187Z,1
2017-07-16T04:52:02.706Z,1
2017-07-16T04:52:33.335Z,1
2017-07-16T04:53:03.833Z,1
2017-07-16T04:54:26.827Z,1
2017-07-16T04:55:26.216Z,1
2017-07-16T04:56:25.675Z,1
2017-07-16T04:57:24.492Z,1
2017-07-16T04:58:23.680Z,1.1
2017-07-16T04:59:22.994Z,1.1
2017-07-16T05:00:22.186Z,1.1
2017-07-16T05:01:21.626Z,1.1
2017-07-16T05:02:21.196Z,1.1
2017-07-16T05:03:20.001Z,1.1
2017-07-16T05:03:50.938Z,1.1
2017-07-16T05:04:21.330Z,1.2
2017-07-16T05:05:18.941Z,1.2
2017-07-16T05:06:17.759Z,1.2
2017-07-16T05:07:16.583Z,1.2
2017-07-16T05:08:15.906Z,1.2
2017-07-16T05:09:15.234Z,1.3
2017-07-16T05:10:14.669Z,1.3
2017-07-16T05:11:13.759Z,1.3
2017-07-16T05:12:12.455Z,1.3
2017-07-16T05:13:12.151Z,1.3
2017-07-16T05:14:11.115Z,1.3
2017-07-16T05:15:10.606Z,1.3
2017-07-16T05:16:09.557Z,1.3
2017-07-16T05:17:08.885Z,1.4
2017-07-16T05:18:08.336Z,1.4
2017-07-16T05:19:07.280Z,1.4
2017-07-16T05:20:06.602Z,1.4
2017-07-16T05:21:05.536Z,1.5
2017-07-16T05:22:04.850Z,1.5
2017-07-16T05:22:35.471Z,1.5
2017-07-16T05:24:03.103Z,1.6
2017-07-16T05:25:02.422Z,1.7
2017-07-16T05:26:01.859Z,1.7
2017-07-16T05:27:00.939Z,1.8
2017-07-16T05:28:00.377Z,1.8
2017-07-16T05:28:59.059Z,1.9
2017-07-16T05:29:58.503Z,1.9
2017-07-16T05:30:57.974Z,2
2017-07-16T05:31:56.805Z,2
2017-07-16T05:32:56.378Z,2.1
2017-07-16T05:33:55.567Z,2.1
2017-07-16T05:34:54.516Z,2.2
2017-07-16T05:35:53.964Z,2.2
2017-07-16T05:36:53.049Z,2.2
2017-07-16T05:37:52.122Z,2.2
2017-07-16T05:38:51.331Z,2.3
2017-07-16T05:39:50.908Z,2.3
2017-07-16T05:40:49.859Z,2.3
2017-07-16T05:41:49.309Z,2.3
2017-07-16T05:42:48.779Z,2.3
2017-07-16T05:43:47.855Z,2.3
2017-07-16T05:44:46.950Z,2.3
2017-07-16T05:45:46.036Z,2.3
2017-07-16T05:46:46.190Z,2.4
2017-07-16T05:47:44.244Z,2.5
2017-07-16T05:48:15.015Z,2.5
2017-07-16T05:48:45.021Z,2.4
2017-07-16T05:49:15.389Z,2.4
2017-07-16T05:49:46.288Z,2.4
2017-07-16T05:50:16.417Z,2.4
2017-07-16T05:51:41.158Z,2.5
2017-07-16T05:52:40.229Z,2.4
2017-07-16T05:53:40.194Z,2.5
2017-07-16T05:54:39.027Z,2.5
2017-07-16T05:55:38.138Z,2.5
2017-07-16T05:56:37.334Z,2.6
2017-07-16T05:57:36.913Z,2.6
2017-07-16T05:58:06.909Z,2.6
2017-07-16T05:58:37.426Z,2.6
2017-07-16T05:59:08.311Z,2.6
2017-07-16T05:59:38.452Z,2.6
2017-07-16T06:00:09.084Z,2.6
2017-07-16T06:01:33.446Z,2.7
2017-07-16T06:02:32.787Z,2.7
2017-07-16T06:03:31.976Z,2.7
2017-07-16T06:04:31.421Z,2.7
2017-07-16T06:05:30.234Z,2.7
2017-07-16T06:06:29.833Z,2.8
2017-07-16T06:07:29.033Z,2.8
2017-07-16T06:08:28.614Z,2.8
2017-07-16T06:09:27.555Z,2.8
2017-07-16T06:10:26.234Z,2.9
2017-07-16T06:10:56.746Z,2.9
2017-07-16T06:11:27.129Z,3
2017-07-16T06:12:25.218Z,3
2017-07-16T06:13:24.559Z,3.1
2017-07-16T06:14:23.380Z,3.1
2017-07-16T06:15:22.954Z,3.1
2017-07-16T06:16:22.142Z,3.1
2017-07-16T06:18:20.235Z,3.2
2017-07-16T06:19:19.552Z,3.2
2017-07-16T06:20:19.115Z,3.2
2017-07-16T06:21:19.010Z,3.2
2017-07-16T06:22:17.069Z,3.2
2017-07-16T06:23:16.621Z,3.3
2017-07-16T06:24:15.687Z,3.3
2017-07-16T06:25:15.275Z,3.3
2017-07-16T06:26:14.229Z,3.3
2017-07-16T06:27:13.681Z,3.3
2017-07-16T06:27:43.931Z,3.3
2017-07-16T06:28:14.230Z,3.4
2017-07-16T06:28:44.358Z,3.4
2017-07-16T06:29:15.255Z,3.4
2017-07-16T06:29:45.117Z,3.4
2017-07-16T06:30:15.490Z,3.5
2017-07-16T06:30:46.244Z,3.5
2017-07-16T06:32:09.970Z,3.6
2017-07-16T06:33:08.654Z,3.6
2017-07-16T06:34:08.341Z,3.7
2017-07-16T06:35:07.908Z,3.7
2017-07-16T06:36:06.599Z,3.7
2017-07-16T06:37:05.926Z,3.7
2017-07-16T06:38:05.232Z,3.7
2017-07-16T06:38:35.868Z,3.7
2017-07-16T06:39:06.121Z,3.7
2017-07-16T06:39:36.237Z,3.7
2017-07-16T06:40:06.999Z,3.8
2017-07-16T06:40:37.510Z,3.8
2017-07-16T06:41:08.034Z,3.8
2017-07-16T06:41:38.541Z,3.8
2017-07-16T06:43:01.507Z,3.9
2017-07-16T06:44:00.714Z,3.9
2017-07-16T06:45:00.044Z,4
2017-07-16T06:45:59.243Z,4
2017-07-16T06:46:58.317Z,4
2017-07-16T06:47:57.376Z,4.1
2017-07-16T06:48:57.225Z,4.1
2017-07-16T06:49:56.048Z,4.2
2017-07-16T06:50:55.506Z,4.2
2017-07-16T06:51:54.826Z,4.3
2017-07-16T06:52:53.635Z,4.3
2017-07-16T06:53:52.962Z,4.5
2017-07-16T06:54:52.158Z,4.5
2017-07-16T06:55:51.972Z,4.6
2017-07-16T06:56:50.676Z,4.6
2017-07-16T06:57:50.502Z,4.7
2017-07-16T06:58:49.321Z,4.7
2017-07-16T06:59:48.653Z,4.8
2017-07-16T07:00:47.980Z,4.8
2017-07-16T07:01:47.551Z,4.9
2017-07-16T07:02:46.764Z,4.9
2017-07-16T07:03:45.698Z,5
2017-07-16T07:04:44.753Z,5
2017-07-16T07:05:44.380Z,5.1
2017-07-16T07:06:43.458Z,5.1
2017-07-16T07:07:42.650Z,5.2
2017-07-16T07:08:42.221Z,5.2
2017-07-16T07:09:40.784Z,5.3
2017-07-16T07:10:11.277Z,5.3
2017-07-16T07:10:41.906Z,5.3
2017-07-16T07:11:12.478Z,5.3
2017-07-16T07:12:38.984Z,5.4
2017-07-16T07:13:38.552Z,5.4
2017-07-16T07:14:37.633Z,5.5
2017-07-16T07:15:36.704Z,5.5
2017-07-16T07:16:36.027Z,5.5
2017-07-16T07:17:35.607Z,5.6
2017-07-16T07:18:35.062Z,5.6
2017-07-16T07:19:33.757Z,5.6
2017-07-16T07:20:33.066Z,5.7
2017-07-16T07:21:03.704Z,5.7
2017-07-16T07:21:34.463Z,5.7
2017-07-16T07:22:04.460Z,5.7
2017-07-16T07:22:35.207Z,5.7
2017-07-16T07:23:30.867Z,5.7
2017-07-16T07:24:30.839Z,5.7
2017-07-16T07:25:29.539Z,5.8
2017-07-16T07:26:28.743Z,5.6
2017-07-16T07:27:27.929Z,5.7
2017-07-16T07:28:27.750Z,5.7
2017-07-16T07:29:26.935Z,5.7
2017-07-16T07:30:26.129Z,5.7
2017-07-16T07:31:25.580Z,5.7
2017-07-16T07:32:24.806Z,5.7
2017-07-16T07:33:24.093Z,5.7
2017-07-16T07:34:23.672Z,5.8
2017-07-16T07:35:22.355Z,5.8
2017-07-16T07:36:21.674Z,5.8
2017-07-16T07:36:51.671Z,5.8
2017-07-16T07:37:22.184Z,5.8
2017-07-16T07:37:52.840Z,5.8
2017-07-16T07:38:23.238Z,5.8
2017-07-16T07:39:19.551Z,5.9
2017-07-16T07:40:19.000Z,5.9
2017-07-16T07:41:18.198Z,5.9
2017-07-16T07:42:17.786Z,5.9
2017-07-16T07:43:16.852Z,5.9
2017-07-16T07:44:16.053Z,6
2017-07-16T07:45:15.249Z,6
2017-07-16T07:46:14.835Z,6.1
2017-07-16T07:46:45.101Z,6.1
2017-07-16T07:47:15.495Z,6.1
2017-07-16T07:47:45.644Z,6.1
2017-07-16T07:49:12.774Z,6.2
2017-07-16T07:50:12.540Z,6.1
2017-07-16T07:51:11.489Z,6.1
2017-07-16T07:52:10.295Z,6.1
2017-07-16T07:53:10.178Z,6.1
2017-07-16T07:54:09.119Z,6.1
2017-07-16T07:55:08.463Z,6.1
2017-07-16T07:56:07.670Z,6.1
2017-07-16T07:57:07.243Z,6.1
2017-07-16T07:58:06.193Z,6.1
2017-07-16T07:59:05.264Z,6.1
2017-07-16T08:00:04.702Z,6.1
2017-07-16T08:01:04.023Z,6.1
2017-07-16T08:02:02.960Z,6.1
2017-07-16T08:03:02.838Z,6.2
2017-07-16T08:04:01.908Z,6.2
2017-07-16T08:05:01.217Z,6.2
2017-07-16T08:06:00.279Z,6.1
2017-07-16T08:06:31.038Z,6.1
2017-07-16T08:07:01.050Z,6.1
2017-07-16T08:07:31.545Z,6.1
2017-07-16T08:08:02.186Z,6.1
2017-07-16T08:08:32.814Z,6.1
2017-07-16T08:09:03.319Z,6.1
2017-07-16T08:09:57.848Z,6.2
2017-07-16T08:11:56.303Z,6.2
2017-07-16T08:12:55.767Z,6.3
2017-07-16T08:13:55.220Z,6.3
2017-07-16T08:14:54.289Z,6.3
2017-07-16T08:15:53.599Z,6.4
2017-07-16T08:16:24.110Z,6.4
2017-07-16T08:16:54.622Z,6.4
2017-07-16T08:17:25.141Z,6.4
2017-07-16T08:17:55.698Z,6.6
2017-07-16T08:18:26.201Z,6.6
2017-07-16T08:18:57.091Z,6.6
2017-07-16T08:19:27.480Z,6.6
2017-07-16T08:19:57.356Z,6.7
2017-07-16T08:20:27.730Z,6.7
2017-07-16T08:21:49.324Z,6.8
2017-07-16T08:22:48.256Z,6.8
2017-07-16T08:23:47.699Z,6.8
2017-07-16T08:24:47.393Z,6.9
2017-07-16T08:25:46.731Z,7
2017-07-16T08:26:46.067Z,7.1
2017-07-16T08:27:45.386Z,7.2
2017-07-16T08:28:15.880Z,7.2
2017-07-16T08:28:46.892Z,7.2
2017-07-16T08:29:17.276Z,7.2
2017-07-16T08:29:47.283Z,7.4
2017-07-16T08:30:17.916Z,7.4
2017-07-16T08:30:48.301Z,7.4
2017-07-16T08:31:18.681Z,7.4
2017-07-16T08:32:41.622Z,7.5
2017-07-16T08:33:41.142Z,7.6
2017-07-16T08:34:40.596Z,7.6
2017-07-16T08:35:39.801Z,7.6
2017-07-16T08:36:38.875Z,7.6
2017-07-16T08:37:38.560Z,7.7
2017-07-16T08:38:37.864Z,7.6
2017-07-16T08:39:36.927Z,7.6
2017-07-16T08:40:36.380Z,7.7
2017-07-16T08:41:35.831Z,7.6
2017-07-16T08:42:35.540Z,7.6
2017-07-16T08:43:34.351Z,7.5
2017-07-16T08:44:33.790Z,7.6
2017-07-16T08:45:33.107Z,7.6
2017-07-16T08:46:32.360Z,7.7
2017-07-16T08:47:32.652Z,7.7
2017-07-16T08:48:31.224Z,7.8
2017-07-16T08:49:01.480Z,7.8
2017-07-16T08:49:32.251Z,7.8
2017-07-16T08:50:02.248Z,7.8
2017-07-16T08:50:33.018Z,7.8
2017-07-16T08:51:29.446Z,7.9
2017-07-16T08:52:28.133Z,7.8
2017-07-16T08:53:27.593Z,7.9
2017-07-16T08:54:27.055Z,8
2017-07-16T08:55:25.992Z,8
2017-07-16T08:56:25.698Z,8
2017-07-16T08:57:24.755Z,8.1
2017-07-16T08:58:24.447Z,8.1
2017-07-16T08:59:23.893Z,8
2017-07-16T08:59:54.685Z,8
2017-07-16T09:00:25.464Z,7.9
2017-07-16T09:00:55.468Z,7.9
2017-07-16T09:02:22.099Z,8
2017-07-16T09:03:21.536Z,8
2017-07-16T09:04:20.479Z,8
2017-07-16T09:05:20.065Z,8.1
2017-07-16T09:06:18.881Z,8.1
2017-07-16T09:07:18.203Z,8.2
2017-07-16T09:08:17.524Z,8.1
2017-07-16T09:09:17.351Z,8
2017-07-16T09:10:16.551Z,8.1
2017-07-16T09:10:47.048Z,8.1
2017-07-16T09:11:17.940Z,8.2
2017-07-16T09:11:48.055Z,8.2
2017-07-16T09:12:18.309Z,8.2
2017-07-16T09:13:14.480Z,8.2
2017-07-16T09:14:13.795Z,8.2
2017-07-16T09:15:13.113Z,8.2
2017-07-16T09:16:12.866Z,8.3
2017-07-16T09:17:11.935Z,8.3
2017-07-16T09:18:11.637Z,8.3
2017-07-16T09:19:10.963Z,8.4
2017-07-16T09:20:10.400Z,8.4
2017-07-16T09:21:09.220Z,8.3
2017-07-16T09:22:08.545Z,8.4
2017-07-16T09:23:08.114Z,8.4
2017-07-16T09:24:07.189Z,8.5
2017-07-16T09:25:07.207Z,8.6
2017-07-16T09:26:05.901Z,8.6
2017-07-16T09:26:36.527Z,8.6
2017-07-16T09:27:07.030Z,8.7
2017-07-16T09:28:04.720Z,8.6
2017-07-16T09:29:03.786Z,8.6
2017-07-16T09:30:03.228Z,8.6
2017-07-16T09:31:03.180Z,8.6
2017-07-16T09:32:02.498Z,8.7
2017-07-16T09:33:01.818Z,8.6
2017-07-16T09:34:00.898Z,8.6
2017-07-16T09:35:00.087Z,8.6
2017-07-16T09:35:59.913Z,8.7
2017-07-16T09:36:59.373Z,8.8
2017-07-16T09:37:58.430Z,8.7
2017-07-16T09:38:58.135Z,8.7
2017-07-16T09:39:56.822Z,8.7
2017-07-16T09:40:56.633Z,8.7
2017-07-16T09:41:55.961Z,8.8
2017-07-16T09:42:55.529Z,8.9
2017-07-16T09:43:54.610Z,8.9
2017-07-16T09:44:54.056Z,8.9
2017-07-16T09:45:53.550Z,8.9
2017-07-16T09:46:52.840Z,9
2017-07-16T09:47:52.050Z,9
2017-07-16T09:48:51.274Z,8.8
2017-07-16T09:49:51.655Z,8.9
2017-07-16T09:50:50.220Z,8.9
2017-07-16T09:51:49.544Z,8.9
2017-07-16T09:52:48.876Z,9
2017-07-16T09:53:48.055Z,9.1
2017-07-16T09:54:48.011Z,9.1
2017-07-16T09:55:46.947Z,9.2
2017-07-16T09:56:46.388Z,9.3
2017-07-16T09:57:16.515Z,9.3
2017-07-16T09:57:47.142Z,9.3
2017-07-16T09:58:17.264Z,9.3
2017-07-16T09:58:48.662Z,9.2
2017-07-16T09:59:18.563Z,9.2
2017-07-16T10:00:44.181Z,9.2
2017-07-16T10:01:42.860Z,9
2017-07-16T10:02:42.690Z,9.1
2017-07-16T10:03:42.150Z,9.2
2017-07-16T10:04:41.864Z,9.2
2017-07-16T10:05:40.299Z,9.1
2017-07-16T10:06:40.008Z,9.2
2017-07-16T10:07:10.306Z,9.2
2017-07-16T10:07:41.055Z,9.3
2017-07-16T10:08:11.063Z,9.3
2017-07-16T10:08:42.011Z,9.4
2017-07-16T10:09:12.535Z,9.4
2017-07-16T10:09:42.921Z,9.4
2017-07-16T10:10:13.468Z,9.4
2017-07-16T10:11:36.692Z,9.4
2017-07-16T10:12:36.519Z,9.3
2017-07-16T10:13:36.113Z,9.4
2017-07-16T10:14:34.934Z,9.5
2017-07-16T10:15:35.030Z,9.4
2017-07-16T10:16:33.716Z,9.5
2017-07-16T10:17:33.281Z,9.5
2017-07-16T10:18:32.465Z,9.6
2017-07-16T10:19:32.277Z,9.6
2017-07-16T10:20:31.599Z,9.6
2017-07-16T10:21:02.108Z,9.6
2017-07-16T10:22:29.986Z,9.6
2017-07-16T10:23:29.554Z,9.7
2017-07-16T10:24:29.139Z,9.7
2017-07-16T10:25:28.337Z,9.7
2017-07-16T10:26:27.586Z,9.7
2017-07-16T10:27:27.417Z,9.6
2017-07-16T10:28:26.742Z,9.7
2017-07-16T10:29:26.199Z,9.7
2017-07-16T10:30:25.825Z,9.6
2017-07-16T10:31:24.774Z,9.6
2017-07-16T10:32:23.972Z,9.5
2017-07-16T10:33:23.436Z,9.6
2017-07-16T10:34:22.870Z,9.7
2017-07-16T10:35:22.057Z,9.8
2017-07-16T10:36:21.881Z,9.8
2017-07-16T10:37:21.196Z,9.9
2017-07-16T10:38:20.391Z,9.7
2017-07-16T10:38:51.019Z,9.7
2017-07-16T10:39:21.652Z,9.6
2017-07-16T10:39:52.286Z,9.6
2017-07-16T10:40:22.547Z,9.5
2017-07-16T10:40:53.431Z,9.5
2017-07-16T10:42:18.053Z,9.7
2017-07-16T10:43:17.386Z,9.6
2017-07-16T10:44:16.835Z,9.7
2017-07-16T10:45:16.272Z,9.6
2017-07-16T10:46:15.717Z,9.7
2017-07-16T10:47:15.168Z,9.7
2017-07-16T10:48:14.365Z,9.7
2017-07-16T10:49:13.804Z,9.7
2017-07-16T10:49:44.444Z,9.7
2017-07-16T10:50:14.824Z,9.7
2017-07-16T10:50:45.463Z,9.7
2017-07-16T10:51:15.971Z,9.8
2017-07-16T10:51:46.596Z,9.8
2017-07-16T10:53:11.702Z,9.9
2017-07-16T10:54:10.896Z,9.9
2017-07-16T10:55:10.232Z,9.8
2017-07-16T10:56:09.425Z,9.9
2017-07-16T10:57:09.005Z,9.9
2017-07-16T10:58:08.212Z,10
2017-07-16T10:59:08.172Z,10
2017-07-16T11:00:07.621Z,10
2017-07-16T11:01:06.814Z,10.1
2017-07-16T11:02:06.011Z,10
2017-07-16T11:03:05.339Z,10
2017-07-16T11:04:04.912Z,10
2017-07-16T11:05:04.239Z,9.9
2017-07-16T11:06:03.691Z,10
2017-07-16T11:07:03.127Z,9.8
2017-07-16T11:08:02.440Z,10
2017-07-16T11:09:01.637Z,10
2017-07-16T11:10:01.836Z,10.1
2017-07-16T11:11:00.267Z,10
2017-07-16T11:12:00.099Z,10
2017-07-16T11:12:59.291Z,10
2017-07-16T11:13:58.982Z,10
2017-07-16T11:14:58.569Z,10.1
2017-07-16T11:15:57.895Z,10.1
2017-07-16T11:17:56.607Z,10
2017-07-16T11:18:55.794Z,9.9
2017-07-16T11:19:55.487Z,9.9
2017-07-16T11:20:54.823Z,10
2017-07-16T11:21:54.131Z,10
2017-07-16T11:22:53.193Z,10
2017-07-16T11:23:52.890Z,10.1
2017-07-16T11:24:51.961Z,10.1
2017-07-16T11:25:51.786Z,10
2017-07-16T11:26:50.985Z,9.9
2017-07-16T11:27:50.817Z,9.9
2017-07-16T11:28:50.395Z,9.9
2017-07-16T11:29:49.462Z,10.1
2017-07-16T11:30:48.534Z,10.3
2017-07-16T11:31:48.104Z,10.5
2017-07-16T11:32:47.675Z,10.7
2017-07-16T11:33:47.127Z,10.6
2017-07-16T11:34:46.704Z,10.8
2017-07-16T11:35:46.144Z,10.6
2017-07-16T11:36:45.328Z,10.7
2017-07-16T11:37:44.821Z,10.5
2017-07-16T11:38:14.690Z,10.5
2017-07-16T11:38:45.884Z,10.6
2017-07-16T11:39:43.823Z,10.7
2017-07-16T11:40:43.408Z,10.7
2017-07-16T11:41:42.474Z,10.8
2017-07-16T11:42:41.801Z,10.9
2017-07-16T11:43:41.146Z,10.9
2017-07-16T11:44:40.834Z,10.9
2017-07-16T11:45:39.913Z,11
2017-07-16T11:46:39.991Z,10.9
2017-07-16T11:47:38.421Z,10.9
2017-07-16T11:48:08.919Z,10.9
2017-07-16T11:48:39.948Z,10.8
2017-07-16T11:49:10.341Z,10.8
2017-07-16T11:49:40.594Z,11
2017-07-16T11:50:10.464Z,11
2017-07-16T11:51:36.401Z,11.2
2017-07-16T11:53:35.620Z,11.4
2017-07-16T11:54:35.069Z,11.5
2017-07-16T11:55:34.507Z,11.5
2017-07-16T11:56:33.689Z,11.3
2017-07-16T11:57:33.251Z,11.2
2017-07-16T11:58:32.961Z,11.3
2017-07-16T11:59:32.542Z,11.3
2017-07-16T12:00:02.674Z,11.3
2017-07-16T12:00:33.434Z,11.4
2017-07-16T12:01:03.437Z,11.4
2017-07-16T12:02:30.436Z,11.6
2017-07-16T12:03:29.511Z,11.7
2017-07-16T12:04:29.624Z,11.6
2017-07-16T12:05:28.951Z,11.6
2017-07-16T12:06:28.267Z,11.5
2017-07-16T12:07:27.834Z,11.3
2017-07-16T12:08:27.163Z,11.7
2017-07-16T12:09:26.760Z,11.8
2017-07-16T12:10:25.574Z,11.6
2017-07-16T12:11:25.275Z,11.7
2017-07-16T12:12:24.469Z,11.8
2017-07-16T12:13:24.546Z,11.8
2017-07-16T12:14:23.991Z,11.7
2017-07-16T12:15:22.941Z,11.6
2017-07-16T12:16:22.257Z,11.7
2017-07-16T12:17:22.089Z,11.7
2017-07-16T12:18:21.288Z,11.8
2017-07-16T12:18:51.790Z,11.8
2017-07-16T12:19:22.989Z,11.8
2017-07-16T12:19:52.619Z,11.8
2017-07-16T12:20:23.647Z,11.9
2017-07-16T12:20:53.918Z,11.9
2017-07-16T12:22:19.406Z,11.4
2017-07-16T12:23:18.474Z,11.3